createdAt,value
2023-02-17T00:00:56.514Z,14.30
2023-02-17T00:03:24.762Z,15.00
2023-02-17T00:05:53.237Z,15.60
2023-02-17T00:08:27.034Z,19.00
2023-02-17T00:10:58.297Z,18.80
2023-02-17T00:13:26.205Z,19.20
2023-02-17T00:15:55.001Z,18.20
2023-02-17T00:18:23.670Z,17.60
2023-02-17T00:20:53.221Z,16.50
2023-02-17T00:23:21.100Z,16.50
2023-02-17T00:25:50.467Z,15.70
2023-02-17T00:28:19.116Z,16.40
2023-02-17T00:30:47.958Z,16.90
2023-02-17T00:33:16.635Z,16.60
2023-02-17T00:35:44.916Z,17.90
2023-02-17T00:38:12.791Z,18.20
2023-02-17T00:40:41.821Z,16.20
2023-02-17T00:43:10.142Z,15.50
2023-02-17T00:45:38.537Z,15.50
2023-02-17T00:48:06.473Z,15.80
2023-02-17T00:50:35.303Z,16.10
2023-02-17T00:53:06.380Z,15.20
2023-02-17T00:55:34.395Z,14.90
2023-02-17T00:58:02.241Z,17.10
2023-02-17T01:00:30.498Z,16.70
2023-02-17T01:02:58.333Z,16.00
2023-02-17T01:05:26.223Z,16.40
2023-02-17T01:07:54.407Z,16.40
2023-02-17T01:10:22.893Z,16.00
2023-02-17T01:12:50.726Z,16.20
2023-02-17T01:15:18.672Z,16.80
2023-02-17T01:17:47.510Z,16.50
2023-02-17T01:20:15.583Z,16.20
2023-02-17T01:22:45.107Z,17.10
2023-02-17T01:25:13.155Z,16.50
2023-02-17T01:27:41.339Z,16.60
2023-02-17T01:30:09.477Z,16.70
2023-02-17T01:32:37.355Z,15.30
2023-02-17T01:35:05.584Z,16.90
2023-02-17T01:37:36.610Z,16.70
2023-02-17T01:40:04.772Z,16.50
2023-02-17T01:42:33.100Z,16.50
2023-02-17T01:45:16.503Z,15.90
2023-02-17T01:47:51.569Z,17.40
2023-02-17T01:50:20.458Z,16.60
2023-02-17T01:52:48.334Z,17.10
2023-02-17T01:55:18.067Z,16.90
2023-02-17T01:57:45.870Z,16.50
2023-02-17T02:00:17.320Z,18.20
2023-02-17T02:02:46.049Z,16.10
2023-02-17T02:05:14.537Z,17.00
2023-02-17T02:07:42.744Z,16.70
2023-02-17T02:10:11.655Z,17.60
2023-02-17T02:12:40.417Z,17.00
2023-02-17T02:15:18.407Z,17.60
2023-02-17T02:18:05.513Z,18.50
2023-02-17T02:20:34.728Z,22.10
2023-02-17T02:23:28.731Z,25.40
2023-02-17T02:26:14.764Z,27.90
2023-02-17T02:29:01.877Z,26.80
2023-02-17T02:31:30.286Z,25.00
2023-02-17T02:34:01.877Z,25.20
2023-02-17T02:36:31.397Z,24.90
2023-02-17T02:39:03.813Z,24.90
2023-02-17T02:41:34.255Z,21.80
2023-02-17T02:44:06.003Z,19.30
2023-02-17T02:46:34.633Z,19.00
2023-02-17T02:49:02.506Z,18.20
2023-02-17T02:51:49.528Z,20.60
2023-02-17T02:54:34.472Z,18.90
2023-02-17T02:57:03.336Z,18.40
2023-02-17T02:59:34.897Z,18.60
2023-02-17T03:02:21.705Z,19.60
2023-02-17T03:04:55.773Z,18.40
2023-02-17T03:07:42.754Z,18.10
2023-02-17T03:10:10.946Z,18.50
2023-02-17T03:12:40.170Z,19.90
2023-02-17T03:15:34.977Z,18.80
2023-02-17T03:18:03.938Z,18.00
2023-02-17T03:20:37.800Z,18.10
2023-02-17T03:23:05.780Z,18.40
2023-02-17T03:25:33.792Z,18.70
2023-02-17T03:28:02.167Z,18.40
2023-02-17T03:30:30.230Z,18.40
2023-02-17T03:32:58.317Z,17.90
2023-02-17T03:35:27.955Z,18.30
2023-02-17T03:37:55.757Z,19.60
2023-02-17T03:40:23.518Z,18.90
2023-02-17T03:42:51.396Z,19.60
2023-02-17T03:45:19.180Z,19.90
2023-02-17T03:47:48.400Z,20.90
2023-02-17T03:50:16.578Z,20.50
2023-02-17T03:52:44.786Z,21.70
2023-02-17T03:55:13.277Z,22.40
2023-02-17T03:57:41.738Z,21.30
2023-02-17T04:00:09.750Z,20.70
2023-02-17T04:02:44.252Z,21.20
2023-02-17T04:05:12.596Z,21.30
2023-02-17T04:07:40.537Z,23.90
2023-02-17T04:10:09.651Z,22.70
2023-02-17T04:12:37.989Z,21.70
2023-02-17T04:15:05.995Z,23.60
2023-02-17T04:17:35.829Z,23.10
2023-02-17T04:20:04.426Z,23.10
2023-02-17T04:22:32.422Z,23.60
2023-02-17T04:25:00.399Z,23.60
2023-02-17T04:27:28.352Z,22.70
2023-02-17T04:29:56.460Z,23.80
2023-02-17T04:32:24.235Z,24.00
2023-02-17T04:34:52.145Z,25.10
2023-02-17T04:37:20.140Z,24.40
2023-02-17T04:39:47.996Z,23.60
2023-02-17T04:42:15.781Z,24.50
2023-02-17T04:44:43.764Z,24.00
2023-02-17T04:47:11.751Z,22.90
2023-02-17T04:49:39.642Z,23.60
2023-02-17T04:52:07.959Z,23.80
2023-02-17T04:54:36.313Z,25.90
2023-02-17T04:57:04.544Z,24.20
2023-02-17T04:59:33.030Z,26.80
2023-02-17T05:02:01.028Z,25.90
2023-02-17T05:04:30.168Z,24.80
2023-02-17T05:06:58.628Z,25.10
2023-02-17T05:09:32.238Z,26.10
2023-02-17T05:12:03.217Z,26.20
2023-02-17T05:14:31.217Z,27.60
2023-02-17T05:16:59.914Z,27.20
2023-02-17T05:19:28.089Z,29.20
2023-02-17T05:21:56.041Z,27.80
2023-02-17T05:24:23.960Z,28.50
2023-02-17T05:26:55.808Z,27.10
2023-02-17T05:29:24.254Z,28.00
2023-02-17T05:31:53.185Z,28.10
2023-02-17T05:34:21.469Z,26.80
2023-02-17T05:36:49.323Z,28.80
2023-02-17T05:39:17.130Z,28.30
2023-02-17T05:41:45.002Z,28.70
2023-02-17T05:44:12.991Z,30.00
2023-02-17T05:46:40.927Z,30.10
2023-02-17T05:49:08.981Z,30.60
2023-02-17T05:51:37.261Z,30.60
2023-02-17T05:54:05.142Z,29.10
2023-02-17T05:56:33.232Z,30.70
2023-02-17T05:59:02.832Z,30.70
2023-02-17T06:01:31.579Z,29.80
2023-02-17T06:03:59.551Z,30.20
2023-02-17T06:06:27.937Z,30.90
2023-02-17T06:08:56.029Z,30.10
2023-02-17T06:11:24.124Z,30.80
2023-02-17T06:13:51.977Z,32.00
2023-02-17T06:16:21.694Z,29.80
2023-02-17T06:18:49.524Z,30.10
2023-02-17T06:21:17.282Z,30.30
2023-02-17T06:23:45.054Z,31.70
2023-02-17T06:26:13.080Z,31.30
2023-02-17T06:28:41.042Z,32.80
2023-02-17T06:31:08.880Z,31.30
2023-02-17T06:33:36.833Z,31.20
2023-02-17T06:36:05.351Z,32.90
2023-02-17T06:38:33.522Z,33.30
2023-02-17T06:41:01.393Z,32.20
2023-02-17T06:43:31.725Z,32.90
2023-02-17T06:45:59.584Z,33.00
2023-02-17T06:48:27.965Z,31.50
2023-02-17T06:50:56.804Z,31.50
2023-02-17T06:53:24.815Z,32.20
2023-02-17T06:55:52.589Z,32.60
2023-02-17T06:58:21.793Z,33.40
2023-02-17T07:00:49.968Z,35.00
2023-02-17T07:03:18.769Z,31.40
2023-02-17T07:05:47.421Z,34.40
2023-02-17T07:08:15.809Z,32.80
2023-02-17T07:10:43.674Z,32.00
2023-02-17T07:13:11.682Z,33.20
2023-02-17T07:15:39.988Z,33.00
2023-02-17T07:18:07.868Z,32.80
2023-02-17T07:20:38.908Z,33.40
2023-02-17T07:23:07.123Z,33.30
2023-02-17T07:25:35.332Z,32.80
2023-02-17T07:28:03.234Z,33.80
2023-02-17T07:30:32.352Z,32.90
2023-02-17T07:33:00.515Z,32.90
2023-02-17T07:35:28.593Z,33.90
2023-02-17T07:37:57.359Z,34.20
2023-02-17T07:40:25.366Z,34.20
2023-02-17T07:42:54.058Z,34.40
2023-02-17T07:45:22.076Z,34.40
2023-02-17T07:47:49.970Z,34.80
2023-02-17T07:50:17.864Z,33.10
2023-02-17T07:52:45.712Z,34.60
2023-02-17T07:55:13.709Z,35.20
2023-02-17T07:57:41.791Z,37.10
2023-02-17T08:00:10.998Z,34.80
2023-02-17T08:02:41.860Z,35.90
2023-02-17T08:05:10.331Z,34.00
2023-02-17T08:07:39.383Z,34.50
2023-02-17T08:10:26.355Z,34.40
2023-02-17T08:13:13.932Z,35.60
2023-02-17T08:15:41.831Z,33.20
2023-02-17T08:18:10.010Z,32.60
2023-02-17T08:20:38.204Z,33.20
2023-02-17T08:23:07.103Z,33.20
2023-02-17T08:25:35.476Z,33.20
2023-02-17T08:28:04.136Z,31.90
2023-02-17T08:30:34.994Z,31.50
2023-02-17T08:33:02.881Z,34.40
2023-02-17T08:35:30.750Z,31.60
2023-02-17T08:37:58.735Z,32.10
2023-02-17T08:40:26.742Z,30.20
2023-02-17T08:42:54.831Z,29.90
2023-02-17T08:45:23.303Z,29.60
2023-02-17T08:47:51.590Z,28.20
2023-02-17T08:50:20.333Z,29.00
2023-02-17T08:52:48.394Z,28.30
2023-02-17T08:55:19.155Z,28.30
2023-02-17T08:57:47.117Z,28.80
2023-02-17T09:00:15.700Z,28.10
2023-02-17T09:02:45.507Z,28.80
2023-02-17T09:05:14.076Z,26.70
2023-02-17T09:07:42.186Z,28.60
2023-02-17T09:10:10.395Z,28.00
2023-02-17T09:12:38.496Z,28.30
2023-02-17T09:15:06.745Z,27.70
2023-02-17T09:17:34.725Z,29.10
2023-02-17T09:20:03.356Z,27.20
2023-02-17T09:22:32.546Z,28.40
2023-02-17T09:25:00.747Z,27.30
2023-02-17T09:27:28.941Z,27.70
2023-02-17T09:29:56.871Z,27.40
2023-02-17T09:32:24.995Z,28.00
2023-02-17T09:34:53.313Z,28.00
2023-02-17T09:37:22.188Z,28.70
2023-02-17T09:39:50.033Z,28.10
2023-02-17T09:42:21.620Z,26.70
2023-02-17T09:44:52.256Z,28.80
2023-02-17T09:47:23.928Z,27.30
2023-02-17T09:49:54.735Z,27.90
2023-02-17T09:52:41.609Z,26.50
2023-02-17T09:55:17.054Z,26.90
2023-02-17T09:57:48.705Z,27.00
2023-02-17T10:00:17.846Z,26.30
2023-02-17T10:02:49.490Z,26.20
2023-02-17T10:05:18.777Z,25.40
2023-02-17T10:08:12.502Z,25.40
2023-02-17T10:10:42.761Z,25.30
2023-02-17T10:13:16.264Z,26.10
2023-02-17T10:15:46.858Z,23.90
2023-02-17T10:18:35.014Z,25.40
2023-02-17T10:21:07.295Z,23.60
2023-02-17T10:23:35.669Z,24.70
2023-02-17T10:26:13.162Z,24.80
2023-02-17T10:28:44.826Z,23.80
2023-02-17T10:31:14.043Z,24.20
2023-02-17T10:33:46.356Z,25.70
2023-02-17T10:36:14.405Z,25.30
2023-02-17T10:38:48.473Z,24.10
2023-02-17T10:41:17.908Z,26.30
2023-02-17T10:43:45.882Z,27.50
2023-02-17T10:46:14.551Z,25.90
2023-02-17T10:48:44.286Z,27.10
2023-02-17T10:51:13.477Z,26.10
2023-02-17T10:53:41.935Z,26.50
2023-02-17T10:56:23.743Z,26.60
2023-02-17T10:59:00.820Z,26.60
2023-02-17T11:01:28.809Z,26.20
2023-02-17T11:04:07.378Z,25.10
2023-02-17T11:06:37.679Z,26.70
2023-02-17T11:09:06.485Z,26.60
2023-02-17T11:11:39.066Z,28.00
2023-02-17T11:14:06.852Z,26.70
2023-02-17T11:16:36.253Z,26.80
2023-02-17T11:19:04.619Z,26.00
2023-02-17T11:21:36.244Z,26.90
2023-02-17T11:24:04.933Z,25.80
2023-02-17T11:26:34.975Z,27.20
2023-02-17T11:29:09.949Z,28.60
2023-02-17T11:31:38.004Z,27.00
2023-02-17T11:34:13.158Z,27.00
2023-02-17T11:36:40.976Z,26.30
2023-02-17T11:39:21.492Z,27.10
2023-02-17T11:41:49.424Z,26.30
2023-02-17T11:44:24.641Z,27.10
2023-02-17T11:46:55.842Z,27.20
2023-02-17T11:49:39.266Z,29.20
2023-02-17T11:52:10.791Z,28.70
2023-02-17T11:54:59.590Z,27.80
2023-02-17T11:57:34.724Z,25.50
2023-02-17T12:00:05.798Z,27.00
2023-02-17T12:02:47.733Z,27.70
2023-02-17T12:05:19.308Z,28.20
2023-02-17T13:05:46.119Z,30.50
2023-02-17T13:08:38.719Z,30.90
2023-02-17T13:11:10.744Z,31.20
2023-02-17T13:13:38.778Z,32.60
2023-02-17T13:16:11.863Z,31.70
2023-02-17T13:18:45.124Z,31.80
2023-02-17T13:21:22.931Z,29.70
2023-02-17T13:24:01.272Z,31.20
2023-02-17T13:26:36.767Z,31.90
2023-02-17T13:29:09.331Z,29.10
2023-02-17T13:31:54.714Z,31.70
2023-02-17T13:34:36.030Z,29.80
2023-02-17T13:37:28.281Z,29.10
2023-02-17T13:39:56.310Z,29.20
2023-02-17T13:42:36.328Z,29.30
2023-02-17T13:45:34.988Z,28.60
2023-02-17T13:48:33.859Z,26.80
2023-02-17T13:51:04.103Z,28.60
2023-02-17T13:53:39.972Z,29.10
2023-02-17T13:56:12.563Z,29.90
2023-02-17T13:58:41.695Z,29.10
2023-02-17T14:01:18.209Z,30.10
2023-02-17T14:03:51.130Z,28.60
2023-02-17T14:06:41.101Z,28.50
2023-02-17T14:09:20.028Z,27.80
2023-02-17T14:11:49.183Z,29.00
2023-02-17T14:14:17.371Z,27.30
2023-02-17T14:16:46.217Z,30.20
2023-02-17T14:19:16.869Z,30.40
2023-02-17T14:21:55.092Z,29.50
2023-02-17T14:24:33.803Z,30.10
2023-02-17T14:27:02.770Z,29.80
2023-02-17T14:29:58.483Z,30.70
2023-02-17T14:32:27.533Z,29.90
2023-02-17T14:35:25.822Z,29.40
2023-02-17T14:37:53.929Z,31.00
2023-02-17T14:40:23.425Z,31.50
2023-02-17T14:42:52.239Z,32.20
2023-02-17T14:45:20.399Z,32.20
2023-02-17T14:47:48.614Z,32.20
2023-02-17T14:50:17.587Z,32.20
2023-02-17T14:52:47.964Z,32.40
2023-02-17T14:55:36.755Z,31.80
2023-02-17T14:58:04.954Z,32.90
2023-02-17T15:00:33.439Z,32.80
2023-02-17T15:03:01.547Z,33.30
2023-02-17T15:05:29.814Z,31.00
2023-02-17T15:08:00.652Z,32.20
2023-02-17T15:10:31.018Z,31.90
2023-02-17T15:12:59.002Z,31.40
2023-02-17T15:15:27.327Z,33.90
2023-02-17T15:17:55.794Z,33.50
2023-02-17T15:20:24.010Z,34.60
2023-02-17T15:22:52.963Z,36.10
2023-02-17T15:25:23.078Z,38.40
2023-02-17T15:27:51.889Z,42.70
2023-02-17T15:30:20.577Z,43.50
2023-02-17T15:32:48.660Z,46.00
2023-02-17T15:35:20.879Z,46.70
2023-02-17T15:37:49.286Z,48.10
2023-02-17T15:40:19.183Z,46.90
2023-02-17T15:42:50.074Z,44.20
2023-02-17T15:45:19.108Z,44.40
2023-02-17T15:47:47.683Z,40.70
2023-02-17T15:50:20.432Z,41.70
2023-02-17T15:52:49.796Z,41.40
2023-02-17T15:55:18.839Z,39.50
2023-02-17T15:57:48.731Z,38.90
2023-02-17T16:00:23.146Z,38.70
2023-02-17T16:02:51.656Z,39.50
2023-02-17T16:05:23.327Z,38.80
2023-02-17T16:07:51.618Z,37.50
2023-02-17T16:10:27.229Z,37.50
2023-02-17T16:12:56.317Z,39.80
2023-02-17T16:15:24.978Z,36.20
2023-02-17T16:17:53.637Z,34.60
2023-02-17T16:20:29.917Z,32.20
2023-02-17T16:22:58.043Z,33.50
2023-02-17T16:25:44.816Z,32.70
2023-02-17T16:28:17.448Z,32.40
2023-02-17T16:30:46.336Z,29.70
2023-02-17T16:33:14.449Z,32.60
2023-02-17T16:35:43.234Z,29.90
2023-02-17T16:38:23.322Z,30.70
2023-02-17T16:40:52.557Z,29.50
2023-02-17T16:43:22.431Z,27.20
2023-02-17T16:45:53.749Z,27.50
2023-02-17T16:48:27.117Z,28.40
2023-02-17T16:50:55.234Z,26.70
2023-02-17T16:53:25.880Z,28.70
2023-02-17T16:55:55.263Z,28.10
2023-02-17T16:58:24.506Z,27.60
2023-02-17T17:00:54.955Z,27.20
2023-02-17T17:03:23.329Z,28.80
2023-02-17T17:05:52.686Z,27.50
2023-02-17T17:08:21.999Z,27.60
2023-02-17T17:10:53.624Z,27.20
2023-02-17T17:13:24.380Z,28.30
2023-02-17T17:15:52.595Z,29.30
2023-02-17T17:18:21.911Z,28.80
2023-02-17T17:20:50.061Z,29.30
2023-02-17T17:23:20.247Z,28.40
2023-02-17T17:25:48.700Z,29.70
2023-02-17T17:28:18.968Z,29.40
2023-02-17T17:30:47.496Z,29.50
2023-02-17T17:33:16.385Z,28.10
2023-02-17T17:35:44.598Z,28.90
2023-02-17T17:38:14.050Z,30.80
2023-02-17T17:40:53.382Z,30.80
2023-02-17T17:43:21.641Z,29.10
2023-02-17T17:45:50.269Z,28.00
2023-02-17T17:48:19.207Z,29.80
2023-02-17T17:50:49.177Z,30.30
2023-02-17T17:53:18.547Z,31.20
2023-02-17T17:55:48.326Z,28.20
2023-02-17T17:58:17.264Z,30.20
2023-02-17T18:00:50.359Z,30.20
2023-02-17T18:03:19.330Z,30.00
2023-02-17T18:05:48.366Z,29.50
2023-02-17T18:08:16.807Z,30.10
2023-02-17T18:10:44.765Z,29.90
2023-02-17T18:13:16.916Z,29.20
2023-02-17T18:15:45.038Z,29.50
2023-02-17T18:18:13.215Z,31.90
2023-02-17T18:20:41.310Z,28.60
2023-02-17T18:23:09.812Z,30.50
2023-02-17T18:25:37.764Z,28.40
2023-02-17T18:28:05.989Z,29.30
2023-02-17T18:30:34.074Z,29.50
2023-02-17T18:33:02.491Z,31.10
2023-02-17T18:35:34.212Z,29.50
2023-02-17T18:38:02.538Z,28.00
2023-02-17T18:40:31.429Z,30.70
2023-02-17T18:42:59.837Z,30.40
2023-02-17T18:45:27.864Z,30.30
2023-02-17T18:47:56.196Z,32.50
2023-02-17T18:50:26.028Z,31.30
2023-02-17T18:52:54.234Z,30.30
2023-02-17T18:55:22.345Z,29.40
2023-02-17T18:57:54.111Z,29.70
2023-02-17T19:00:22.813Z,30.10
2023-02-17T19:02:50.738Z,28.70
2023-02-17T19:05:18.993Z,29.90
2023-02-17T19:07:46.995Z,29.90
2023-02-17T19:10:15.857Z,28.30
2023-02-17T19:12:43.800Z,28.60
2023-02-17T19:15:14.195Z,28.90
2023-02-17T19:17:42.305Z,29.80
2023-02-17T19:20:11.111Z,29.20
2023-02-17T19:22:39.281Z,28.70
2023-02-17T19:25:08.700Z,30.60
2023-02-17T19:27:39.799Z,31.20
2023-02-17T19:30:08.999Z,30.90
2023-02-17T19:32:36.892Z,30.10
2023-02-17T19:35:05.459Z,32.70
2023-02-17T19:37:34.835Z,30.30
2023-02-17T19:40:03.285Z,30.80
2023-02-17T19:42:31.665Z,30.80
2023-02-17T19:44:59.569Z,27.40
2023-02-17T19:47:27.599Z,30.20
2023-02-17T19:49:58.012Z,30.00
2023-02-17T19:52:26.103Z,29.50
2023-02-17T19:54:54.377Z,28.90
2023-02-17T19:57:23.092Z,28.30
2023-02-17T19:59:51.484Z,29.00
2023-02-17T20:02:19.467Z,30.90
2023-02-17T20:04:47.562Z,30.40
2023-02-17T20:07:15.878Z,29.10
2023-02-17T20:09:44.370Z,30.90
2023-02-17T20:12:12.909Z,29.30
2023-02-17T20:14:42.293Z,30.70
2023-02-17T20:17:10.585Z,31.10
2023-02-17T20:19:39.264Z,30.10
2023-02-17T20:22:07.865Z,30.00
2023-02-17T20:24:40.809Z,28.60
2023-02-17T20:27:08.992Z,28.90
2023-02-17T20:29:37.779Z,27.40
2023-02-17T20:32:08.684Z,28.80
2023-02-17T20:34:39.334Z,28.40
2023-02-17T20:37:12.312Z,28.10
2023-02-17T20:39:41.993Z,28.90
2023-02-17T20:42:09.952Z,31.00
2023-02-17T20:44:38.825Z,28.80
2023-02-17T20:47:07.629Z,29.20
2023-02-17T20:49:36.358Z,29.50
2023-02-17T20:52:05.934Z,28.60
2023-02-17T20:54:34.840Z,28.80
2023-02-17T20:57:02.834Z,29.90
2023-02-17T20:59:31.003Z,26.50
2023-02-17T21:02:01.175Z,28.10
2023-02-17T21:04:29.421Z,26.60
2023-02-17T21:06:57.424Z,25.80
2023-02-17T21:09:29.018Z,27.70
2023-02-17T21:11:57.060Z,26.80
2023-02-17T21:14:25.076Z,27.70
2023-02-17T21:16:54.304Z,25.70
2023-02-17T21:19:22.784Z,27.20
2023-02-17T21:21:52.760Z,27.40
2023-02-17T21:24:20.918Z,27.30
2023-02-17T21:26:48.803Z,26.80
2023-02-17T21:29:17.003Z,27.40
2023-02-17T21:31:44.957Z,29.20
2023-02-17T21:34:13.115Z,29.40
2023-02-17T21:36:41.171Z,29.20
2023-02-17T21:39:09.576Z,28.50
2023-02-17T21:41:41.118Z,29.70
2023-02-17T21:44:30.593Z,27.40
2023-02-17T21:46:58.685Z,30.20
2023-02-17T21:49:28.631Z,30.00
2023-02-17T21:51:56.708Z,30.30
2023-02-17T21:54:25.105Z,30.30
2023-02-17T21:56:55.046Z,29.60
2023-02-17T21:59:23.045Z,30.70
2023-02-17T22:01:52.052Z,29.80
2023-02-17T22:04:20.188Z,29.10
2023-02-17T22:06:48.909Z,30.60
2023-02-17T22:09:18.177Z,33.30
2023-02-17T22:11:46.654Z,30.10
2023-02-17T22:14:16.721Z,32.00
2023-02-17T22:16:47.910Z,32.10
2023-02-17T22:19:21.593Z,31.00
2023-02-17T22:21:50.501Z,31.70
2023-02-17T22:24:20.635Z,30.90
2023-02-17T22:26:49.035Z,31.10
2023-02-17T22:29:17.486Z,32.50
2023-02-17T22:31:45.637Z,32.00
2023-02-17T22:34:13.943Z,32.80
2023-02-17T22:36:41.996Z,34.30
2023-02-17T22:39:09.914Z,33.70
2023-02-17T22:41:39.429Z,33.10
2023-02-17T22:44:07.771Z,34.20
2023-02-17T22:46:36.116Z,32.70
2023-02-17T22:49:04.374Z,30.70
2023-02-17T22:51:37.497Z,33.00
2023-02-17T22:54:06.392Z,32.70
2023-02-17T22:56:36.420Z,31.80
2023-02-17T22:59:05.694Z,31.70
2023-02-17T23:01:34.776Z,32.70
2023-02-17T23:04:02.859Z,33.90
2023-02-17T23:06:32.677Z,34.50
2023-02-17T23:09:01.329Z,33.80
2023-02-17T23:11:49.866Z,34.80
2023-02-17T23:14:26.036Z,33.60
2023-02-17T23:16:57.422Z,33.70
2023-02-17T23:19:28.250Z,35.30
2023-02-17T23:21:59.170Z,35.70
2023-02-17T23:24:27.515Z,35.70
2023-02-17T23:26:56.319Z,35.10
2023-02-17T23:29:24.493Z,34.30
2023-02-17T23:31:52.660Z,34.30
2023-02-17T23:34:20.916Z,33.80
2023-02-17T23:36:50.305Z,33.70
2023-02-17T23:39:19.555Z,33.60
2023-02-17T23:41:50.184Z,34.10
2023-02-17T23:44:18.563Z,36.70
2023-02-17T23:46:47.087Z,38.50
2023-02-17T23:49:16.588Z,36.30
2023-02-17T23:51:45.175Z,36.90
2023-02-17T23:54:13.361Z,37.00
2023-02-17T23:56:41.536Z,37.60
2023-02-17T23:59:09.834Z,38.30
